createdAt,value
2023-05-22T00:00:25.883Z,14.60
2023-05-22T00:01:26.989Z,14.5
2023-05-22T00:02:24.740Z,15.60
2023-05-22T00:03:24.754Z,14.39
2023-05-22T00:04:24.842Z,14.5
2023-05-22T00:06:24.546Z,14.30
2023-05-22T00:07:24.742Z,15
2023-05-22T00:08:25.810Z,14.69
2023-05-22T00:10:24.378Z,14.39
2023-05-22T00:11:24.304Z,15.10
2023-05-22T00:12:25.092Z,17.89
2023-05-22T00:13:24.539Z,14.80
2023-05-22T00:14:24.379Z,15.69
2023-05-22T00:15:24.558Z,16.5
2023-05-22T00:16:24.499Z,15.69
2023-05-22T00:17:24.620Z,15
2023-05-22T00:18:24.726Z,15.30
2023-05-22T00:19:24.200Z,15.39
2023-05-22T00:20:24.825Z,15.30
2023-05-22T00:21:24.577Z,14.10
2023-05-22T00:22:24.602Z,15
2023-05-22T00:23:24.244Z,15.30
2023-05-22T00:24:29.760Z,14.89
2023-05-22T00:25:24.370Z,14.80
2023-05-22T00:26:24.357Z,15
2023-05-22T00:27:24.022Z,15.80
2023-05-22T00:28:24.530Z,14.30
2023-05-22T00:29:24.128Z,14.80
2023-05-22T00:30:32.951Z,16.79
2023-05-22T00:31:24.781Z,14.10
2023-05-22T00:32:24.670Z,15.69
2023-05-22T00:33:24.493Z,16.79
2023-05-22T00:34:24.532Z,14.39
2023-05-22T00:35:24.729Z,15
2023-05-22T00:36:24.563Z,14.60
2023-05-22T00:37:24.406Z,15.19
2023-05-22T00:38:24.698Z,14.60
2023-05-22T00:39:25.204Z,15.39
2023-05-22T00:40:25.092Z,14.60
2023-05-22T00:41:24.378Z,15
2023-05-22T00:42:24.413Z,15.19
2023-05-22T00:43:24.564Z,15.5
2023-05-22T00:44:24.732Z,16.60
2023-05-22T00:45:24.921Z,16
2023-05-22T00:46:24.966Z,15.60
2023-05-22T00:47:25.303Z,14.5
2023-05-22T00:48:24.376Z,15.10
2023-05-22T00:49:24.691Z,15.39
2023-05-22T00:50:24.952Z,14.69
2023-05-22T00:51:24.706Z,16.60
2023-05-22T00:52:43.920Z,16.70
2023-05-22T00:53:25.027Z,14.69
2023-05-22T00:54:24.775Z,15.5
2023-05-22T00:55:24.795Z,15.39
2023-05-22T00:56:24.459Z,15.80
2023-05-22T00:57:24.710Z,15.89
2023-05-22T00:58:24.505Z,16.60
2023-05-22T00:59:24.472Z,15
2023-05-22T01:00:25.761Z,15.60
2023-05-22T01:01:24.899Z,16.89
2023-05-22T01:02:24.525Z,15.80
2023-05-22T01:03:24.853Z,18.39
2023-05-22T01:04:24.697Z,15
2023-05-22T01:05:24.904Z,16.29
2023-05-22T01:06:25.136Z,16
2023-05-22T01:07:24.919Z,15.89
2023-05-22T01:08:24.792Z,15.39
2023-05-22T01:09:24.666Z,16.20
2023-05-22T01:10:24.756Z,15.80
2023-05-22T01:11:24.376Z,15
2023-05-22T01:12:24.415Z,17.39
2023-05-22T01:13:24.352Z,15.19
2023-05-22T01:14:24.537Z,15.10
2023-05-22T01:15:24.400Z,15.69
2023-05-22T01:16:24.450Z,17.60
2023-05-22T01:17:24.521Z,17.20
2023-05-22T01:18:24.514Z,16.79
2023-05-22T01:19:24.391Z,17.29
2023-05-22T01:20:24.584Z,16.89
2023-05-22T01:21:24.861Z,17.20
2023-05-22T01:22:24.969Z,16.60
2023-05-22T01:23:24.846Z,17.20
2023-05-22T01:24:24.804Z,15.80
2023-05-22T01:25:25.357Z,15.89
2023-05-22T01:26:24.522Z,16.39
2023-05-22T01:27:24.762Z,16.60
2023-05-22T01:28:25.186Z,16.70
2023-05-22T01:29:25.187Z,18.29
2023-05-22T01:30:24.939Z,17.20
2023-05-22T01:31:24.481Z,16.20
2023-05-22T01:32:24.774Z,15.69
2023-05-22T01:33:24.477Z,15.39
2023-05-22T01:34:25.059Z,15.89
2023-05-22T01:35:25.064Z,15.39
2023-05-22T01:36:24.702Z,16.79
2023-05-22T01:37:24.281Z,16.70
2023-05-22T01:38:24.998Z,16.5
2023-05-22T01:39:24.995Z,15.80
2023-05-22T01:40:24.926Z,16.39
2023-05-22T01:41:24.953Z,16.5
2023-05-22T01:43:24.233Z,15.89
2023-05-22T01:44:24.745Z,17.70
2023-05-22T01:45:24.617Z,15.89
2023-05-22T01:46:24.796Z,18
2023-05-22T01:47:24.517Z,15.5
2023-05-22T01:48:24.605Z,16.79
2023-05-22T01:49:24.532Z,16.20
2023-05-22T01:50:24.782Z,16.60
2023-05-22T01:51:24.262Z,16.5
2023-05-22T01:52:25.006Z,15.89
2023-05-22T01:53:24.641Z,16
2023-05-22T01:54:24.421Z,16.60
2023-05-22T01:55:24.665Z,16.39
2023-05-22T01:56:24.423Z,16.89
2023-05-22T01:58:24.424Z,16.79
2023-05-22T01:59:24.729Z,17.29
2023-05-22T02:01:24.241Z,16.60
2023-05-22T02:02:24.386Z,17.60
2023-05-22T02:03:24.488Z,15.69
2023-05-22T02:04:24.624Z,16
2023-05-22T02:05:24.997Z,17.29
2023-05-22T02:06:24.896Z,16.60
2023-05-22T02:07:24.832Z,17.10
2023-05-22T02:08:24.730Z,16.10
2023-05-22T02:09:24.482Z,15.80
2023-05-22T02:10:24.742Z,18.10
2023-05-22T02:11:24.199Z,17
2023-05-22T02:12:25.146Z,17.79
2023-05-22T02:13:25.129Z,17.20
2023-05-22T02:14:24.801Z,17.60
2023-05-22T02:15:25.195Z,16.5
2023-05-22T02:16:24.996Z,16.29
2023-05-22T02:17:24.601Z,16.89
2023-05-22T02:18:24.705Z,15.80
2023-05-22T02:19:24.516Z,17.29
2023-05-22T02:20:25.191Z,18.60
2023-05-22T02:21:24.597Z,19.5
2023-05-22T02:22:24.869Z,17.60
2023-05-22T02:23:24.730Z,18.29
2023-05-22T02:24:24.712Z,20.89
2023-05-22T02:25:24.648Z,18.10
2023-05-22T02:26:24.426Z,17.29
2023-05-22T02:27:24.373Z,16.89
2023-05-22T02:28:24.830Z,18.39
2023-05-22T02:30:25.251Z,18.79
2023-05-22T02:31:24.541Z,19.10
2023-05-22T02:32:24.972Z,17.5
2023-05-22T02:33:25.067Z,18.5
2023-05-22T02:34:24.601Z,17.20
2023-05-22T02:35:24.662Z,17.60
2023-05-22T02:36:24.663Z,17.39
2023-05-22T02:37:24.641Z,18.10
2023-05-22T02:38:24.380Z,17.79
2023-05-22T02:39:24.261Z,16.60
2023-05-22T02:40:25.125Z,17.10
2023-05-22T02:41:24.511Z,16.89
2023-05-22T02:42:24.341Z,17.89
2023-05-22T02:43:24.906Z,18.5
2023-05-22T02:44:24.613Z,20
2023-05-22T02:45:25.124Z,19.60
2023-05-22T02:46:24.981Z,17.20
2023-05-22T02:47:24.769Z,20.5
2023-05-22T02:48:24.951Z,19.79
2023-05-22T02:49:24.871Z,18.89
2023-05-22T02:50:25.306Z,19.10
2023-05-22T02:51:30.032Z,17.70
2023-05-22T02:52:25.035Z,19.60
2023-05-22T02:53:24.350Z,19.20
2023-05-22T02:54:24.358Z,18.20
2023-05-22T02:55:24.616Z,17
2023-05-22T02:56:24.665Z,18.70
2023-05-22T02:57:24.513Z,16.79
2023-05-22T02:58:24.410Z,17.39
2023-05-22T02:59:24.542Z,19
2023-05-22T03:00:25.859Z,17.29
2023-05-22T03:01:38.534Z,17.39
2023-05-22T03:02:25.001Z,18.60
2023-05-22T03:03:25.278Z,20
2023-05-22T03:04:24.529Z,17.79
2023-05-22T03:05:24.966Z,18.5
2023-05-22T03:06:25.046Z,17.70
2023-05-22T03:07:25.201Z,18.79
2023-05-22T03:08:24.519Z,18
2023-05-22T03:09:24.570Z,19.89
2023-05-22T03:10:24.913Z,18.60
2023-05-22T03:12:24.693Z,17.39
2023-05-22T03:13:24.311Z,18.79
2023-05-22T03:14:25.075Z,17.89
2023-05-22T03:15:25.401Z,17.39
2023-05-22T03:16:24.465Z,18.89
2023-05-22T03:17:24.516Z,18.60
2023-05-22T03:18:27.267Z,17.29
2023-05-22T03:19:24.650Z,18.5
2023-05-22T03:20:24.861Z,18.89
2023-05-22T03:21:24.690Z,17.29
2023-05-22T03:22:24.576Z,18.89
2023-05-22T03:23:43.392Z,18.5
2023-05-22T03:24:24.210Z,17.70
2023-05-22T03:25:43.928Z,17.60
2023-05-22T03:26:24.613Z,18.89
2023-05-22T03:27:24.277Z,19
2023-05-22T03:28:25.004Z,16.70
2023-05-22T03:29:24.916Z,19.20
2023-05-22T03:30:24.832Z,20.39
2023-05-22T03:31:46.345Z,18.29
2023-05-22T03:32:25.160Z,17.60
2023-05-22T03:33:47.082Z,17.79
2023-05-22T03:34:25.193Z,18.70
2023-05-22T03:35:24.809Z,16.89
2023-05-22T03:36:24.628Z,18.39
2023-05-22T03:37:24.387Z,19.89
2023-05-22T03:38:24.272Z,17.60
2023-05-22T03:39:24.250Z,18.10
2023-05-22T03:40:24.583Z,19.39
2023-05-22T03:41:24.625Z,17.20
2023-05-22T03:42:24.562Z,20.60
2023-05-22T03:43:24.704Z,19.60
2023-05-22T03:45:25.162Z,19.89
2023-05-22T03:46:25.350Z,19.60
2023-05-22T03:47:24.911Z,20
2023-05-22T03:48:24.985Z,21.5
2023-05-22T03:49:24.681Z,20.20
2023-05-22T03:50:24.841Z,21.89
2023-05-22T03:51:24.584Z,19.29
2023-05-22T03:52:24.525Z,20.39
2023-05-22T03:53:24.495Z,19.89
2023-05-22T03:54:24.620Z,18.79
2023-05-22T03:55:24.886Z,21
2023-05-22T03:56:24.821Z,23.70
2023-05-22T03:57:24.599Z,22.5
2023-05-22T03:58:24.686Z,22.70
2023-05-22T03:59:24.706Z,20.5
2023-05-22T04:00:27.017Z,22.89
2023-05-22T04:01:25.127Z,21
2023-05-22T04:02:25.356Z,20.89
2023-05-22T04:03:24.726Z,21
2023-05-22T04:04:24.920Z,19.70
2023-05-22T04:05:24.799Z,20
2023-05-22T04:06:24.723Z,25.10
2023-05-22T04:07:24.657Z,23.10
2023-05-22T04:08:24.752Z,22
2023-05-22T04:09:24.973Z,22.79
2023-05-22T04:10:25.126Z,24.10
2023-05-22T04:11:24.711Z,23.89
2023-05-22T04:12:25.013Z,22.89
2023-05-22T04:13:24.824Z,22
2023-05-22T04:14:25.031Z,22.89
2023-05-22T04:15:25.681Z,19.79
2023-05-22T04:16:25.673Z,21.20
2023-05-22T04:17:25.099Z,20.29
2023-05-22T04:18:25.034Z,21.60
2023-05-22T04:19:25.150Z,20
2023-05-22T04:20:24.723Z,20.5
2023-05-22T04:21:24.461Z,19.89
2023-05-22T04:22:24.651Z,19.79
2023-05-22T04:23:24.925Z,21.10
2023-05-22T04:24:25.051Z,22.29
2023-05-22T04:25:25.225Z,20.5
2023-05-22T04:26:25.103Z,20.10
2023-05-22T04:27:24.829Z,20.70
2023-05-22T04:28:24.968Z,20.5
2023-05-22T04:29:24.909Z,19.20
2023-05-22T04:30:25.111Z,20.20
2023-05-22T04:31:25.047Z,21.5
2023-05-22T04:32:25.253Z,19.20
2023-05-22T04:33:24.824Z,20.70
2023-05-22T04:34:24.606Z,24
2023-05-22T04:35:25.091Z,21.39
2023-05-22T04:36:24.325Z,20.20
2023-05-22T04:37:24.634Z,18.70
2023-05-22T04:38:25.188Z,19.10
2023-05-22T04:39:24.922Z,20.10
2023-05-22T04:40:25.363Z,20.39
2023-05-22T04:41:24.720Z,18
2023-05-22T04:42:24.756Z,21.39
2023-05-22T04:43:24.794Z,19.29
2023-05-22T04:44:25.116Z,20.60
2023-05-22T04:45:25.250Z,19.29
2023-05-22T04:46:25.098Z,19.10
2023-05-22T04:47:24.769Z,18.10
2023-05-22T04:48:24.928Z,17.5
2023-05-22T04:49:25.021Z,19
2023-05-22T04:50:25.266Z,17.60
2023-05-22T04:51:24.856Z,19.5
2023-05-22T04:52:25.183Z,18
2023-05-22T04:53:24.773Z,17.70
2023-05-22T04:54:25.025Z,17.60
2023-05-22T04:55:25.627Z,19.70
2023-05-22T04:56:35.634Z,18
2023-05-22T04:57:25.167Z,19.20
2023-05-22T04:58:25.168Z,19.39
2023-05-22T04:59:25.350Z,18.70
2023-05-22T05:00:25.862Z,18.29
2023-05-22T05:01:24.896Z,18.70
2023-05-22T05:02:25.032Z,19.39
2023-05-22T05:03:24.883Z,17.60
2023-05-22T05:04:25.143Z,19.10
2023-05-22T05:05:24.861Z,21.79
2023-05-22T05:06:24.929Z,20
2023-05-22T05:07:25.153Z,17.89
2023-05-22T05:08:25.073Z,18
2023-05-22T05:09:24.874Z,22.39
2023-05-22T05:10:25.157Z,21.79
2023-05-22T05:11:24.790Z,20.70
2023-05-22T05:12:24.988Z,20
2023-05-22T05:13:25.059Z,21.79
2023-05-22T05:14:24.497Z,21.20
2023-05-22T05:15:25.315Z,21.5
2023-05-22T05:16:24.583Z,20.60
2023-05-22T05:17:25.050Z,22.39
2023-05-22T05:18:24.801Z,23.5
2023-05-22T05:19:25.154Z,22.20
2023-05-22T05:20:25.004Z,22
2023-05-22T05:21:24.619Z,23.10
2023-05-22T05:22:24.984Z,20.5
2023-05-22T05:23:24.553Z,20.20
2023-05-22T05:24:24.908Z,21.60
2023-05-22T05:25:25.204Z,20.60
2023-05-22T05:26:25.163Z,19.70
2023-05-22T05:27:24.544Z,19.79
2023-05-22T05:28:24.669Z,20.39
2023-05-22T05:29:24.620Z,20
2023-05-22T05:30:25.268Z,23.5
2023-05-22T05:31:24.947Z,24.60
2023-05-22T05:32:25.409Z,24.79
2023-05-22T05:33:24.829Z,21.79
2023-05-22T05:34:25.157Z,24.60
2023-05-22T05:35:25.380Z,22.89
2023-05-22T05:36:24.385Z,21.79
2023-05-22T05:37:24.625Z,21.10
2023-05-22T05:39:25.056Z,23.60
2023-05-22T05:40:24.616Z,21.70
2023-05-22T05:41:24.893Z,25.79
2023-05-22T05:42:25.097Z,22.5
2023-05-22T05:43:24.336Z,22.29
2023-05-22T05:44:24.590Z,21.29
2023-05-22T05:45:25.015Z,21.10
2023-05-22T05:46:24.769Z,23.5
2023-05-22T05:47:24.739Z,21.79
2023-05-22T05:48:25.229Z,25.39
2023-05-22T05:49:24.542Z,21.70
2023-05-22T05:50:25.175Z,24.20
2023-05-22T05:51:24.941Z,22.39
2023-05-22T05:52:24.839Z,22.79
2023-05-22T05:53:25.204Z,26.39
2023-05-22T05:54:25.053Z,26.5
2023-05-22T05:55:25.490Z,22.10
2023-05-22T05:56:24.931Z,22.5
2023-05-22T05:57:25.086Z,20.20
2023-05-22T05:58:24.745Z,19.79
2023-05-22T05:59:24.956Z,23.39
2023-05-22T06:00:25.784Z,20.5
2023-05-22T06:01:25.111Z,21.29
2023-05-22T06:02:25.175Z,21.89
2023-05-22T06:03:24.850Z,20.39
2023-05-22T06:04:25.453Z,23.39
2023-05-22T06:05:24.878Z,21.60
2023-05-22T06:06:24.695Z,22.39
2023-05-22T06:07:25.049Z,19.70
2023-05-22T06:08:25.023Z,19.5
2023-05-22T06:09:25.426Z,19.60
2023-05-22T06:10:24.892Z,21.70
2023-05-22T06:11:25.020Z,19
2023-05-22T06:12:25.117Z,21.29
2023-05-22T06:13:24.445Z,20.89
2023-05-22T06:14:24.560Z,20.20
2023-05-22T06:15:25.183Z,18.89
2023-05-22T06:16:25.033Z,21.29
2023-05-22T06:17:24.611Z,20
2023-05-22T06:18:25.016Z,23.89
2023-05-22T06:19:24.696Z,20.5
2023-05-22T06:20:25.065Z,20.70
2023-05-22T06:21:24.536Z,21.10
2023-05-22T06:22:24.856Z,21.70
2023-05-22T06:23:25.042Z,21.5
2023-05-22T06:24:25.237Z,22.79
2023-05-22T06:25:24.924Z,23.89
2023-05-22T06:26:24.930Z,23.29
2023-05-22T06:27:25.262Z,25
2023-05-22T06:28:24.689Z,26
2023-05-22T06:29:24.879Z,24.10
2023-05-22T06:30:38.951Z,24.60
2023-05-22T06:31:24.734Z,24.79
2023-05-22T06:32:25.271Z,23.60
2023-05-22T06:33:25.050Z,25
2023-05-22T06:34:24.690Z,25.79
2023-05-22T06:35:25.472Z,24.29
2023-05-22T06:36:24.758Z,23.89
2023-05-22T06:37:24.819Z,26.70
2023-05-22T06:38:25.048Z,24.70
2023-05-22T06:39:25.291Z,25.70
2023-05-22T06:40:24.711Z,24.89
2023-05-22T06:41:24.440Z,23.79
2023-05-22T06:42:25.089Z,20.10
2023-05-22T06:43:24.363Z,23.10
2023-05-22T06:44:24.638Z,23.89
2023-05-22T06:45:25.390Z,24
2023-05-22T06:46:26.133Z,23
2023-05-22T06:47:24.884Z,22.5
2023-05-22T06:48:25.152Z,25.20
2023-05-22T06:49:24.728Z,26.5
2023-05-22T06:50:25.279Z,26.20
2023-05-22T06:51:24.781Z,23.5
2023-05-22T06:52:25.331Z,21.79
2023-05-22T06:53:24.444Z,24.39
2023-05-22T06:54:24.825Z,22
2023-05-22T06:55:25.570Z,21.89
2023-05-22T06:56:24.873Z,23.20
2023-05-22T06:57:25.366Z,20.70
2023-05-22T06:58:25.063Z,20
2023-05-22T06:59:24.733Z,19.60
2023-05-22T07:00:26.144Z,23.20
2023-05-22T07:01:25.183Z,22.29
2023-05-22T07:02:24.844Z,24
2023-05-22T07:03:25.307Z,22.89
2023-05-22T07:04:25.072Z,21.10
2023-05-22T07:05:25.108Z,25.10
2023-05-22T07:06:24.764Z,23.70
2023-05-22T07:07:25.203Z,23.20
2023-05-22T07:08:24.643Z,21.89
2023-05-22T07:09:25.039Z,20.5
2023-05-22T07:10:24.945Z,23.20
2023-05-22T07:11:24.607Z,24.20
2023-05-22T07:12:24.592Z,19.79
2023-05-22T07:13:24.875Z,27.60
2023-05-22T07:14:24.973Z,25.20
2023-05-22T07:15:25.436Z,24.10
2023-05-22T07:16:24.563Z,21.29
2023-05-22T07:17:25.093Z,23.70
2023-05-22T07:18:25.109Z,21.5
2023-05-22T07:19:24.786Z,20.70
2023-05-22T07:20:25.157Z,22.10
2023-05-22T07:21:24.853Z,23.10
2023-05-22T07:22:24.883Z,22.79
2023-05-22T07:23:26.237Z,22
2023-05-22T07:24:24.600Z,23.79
2023-05-22T07:25:25.132Z,22
2023-05-22T07:26:24.354Z,24.29
2023-05-22T07:27:24.437Z,22.10
2023-05-22T07:28:24.831Z,21.79
2023-05-22T07:29:24.755Z,22.89
2023-05-22T07:30:25.419Z,22.79
2023-05-22T07:31:25.260Z,20.89
2023-05-22T07:32:25.288Z,21.5
2023-05-22T07:33:29.905Z,22.79
2023-05-22T07:34:25.094Z,22
2023-05-22T07:35:25.206Z,22.70
2023-05-22T07:36:24.513Z,22.20
2023-05-22T07:37:24.728Z,23.10
2023-05-22T07:38:24.857Z,21.39
2023-05-22T07:39:25.218Z,20.5
2023-05-22T07:40:26.465Z,18.20
2023-05-22T07:41:24.974Z,21.10
2023-05-22T07:42:25.125Z,19
2023-05-22T07:43:24.726Z,23.39
2023-05-22T07:44:24.803Z,22
2023-05-22T07:45:33.260Z,20.29
2023-05-22T07:46:24.927Z,19.10
2023-05-22T07:47:25.078Z,21.60
2023-05-22T07:48:24.923Z,21.70
2023-05-22T07:49:25.098Z,22.29
2023-05-22T07:50:25.094Z,20.89
2023-05-22T07:51:25.309Z,21.39
2023-05-22T07:52:24.989Z,19.10
2023-05-22T07:53:25.306Z,20.79
2023-05-22T07:54:24.812Z,19.39
2023-05-22T07:55:25.239Z,21.10
2023-05-22T07:56:25.030Z,21.60
2023-05-22T07:57:24.575Z,19.60
2023-05-22T07:58:24.698Z,22.39
2023-05-22T07:59:24.629Z,20.29
2023-05-22T08:00:25.806Z,20.39
2023-05-22T08:01:39.070Z,18.39
2023-05-22T08:02:24.536Z,23.10
2023-05-22T08:03:39.751Z,17.29
2023-05-22T08:04:24.810Z,19.29
2023-05-22T08:05:39.124Z,22.89
2023-05-22T08:06:24.759Z,21
2023-05-22T08:07:25.074Z,20.20
2023-05-22T08:08:24.501Z,19.70
2023-05-22T08:09:25.043Z,18.79
2023-05-22T08:10:26.470Z,18.39
2023-05-22T08:11:24.936Z,18.60
2023-05-22T08:12:25.128Z,20.89
2023-05-22T08:13:25.196Z,19.89
2023-05-22T08:14:24.691Z,21.5
2023-05-22T08:15:25.312Z,21.60
2023-05-22T08:16:25.014Z,19.89
2023-05-22T08:17:24.976Z,20.89
2023-05-22T08:18:25.244Z,19.79
2023-05-22T08:19:46.864Z,19.70
2023-05-22T08:20:25.811Z,21.5
2023-05-22T08:21:24.891Z,21.89
2023-05-22T08:22:25.258Z,19.79
2023-05-22T08:23:24.582Z,20.20
2023-05-22T08:24:25.182Z,19.89
2023-05-22T08:25:24.881Z,18.60
2023-05-22T08:26:25.058Z,20.60
2023-05-22T08:27:24.576Z,21.79
2023-05-22T08:28:24.727Z,20.5
2023-05-22T08:29:24.785Z,20
2023-05-22T08:30:25.630Z,18.79
2023-05-22T08:31:24.891Z,21.70
2023-05-22T08:32:25.205Z,20.20
2023-05-22T08:33:24.605Z,20.79
2023-05-22T08:34:24.790Z,19.79
2023-05-22T08:35:25.043Z,20.10
2023-05-22T08:36:25.039Z,20.79
2023-05-22T08:37:25.328Z,19.89
2023-05-22T08:38:24.992Z,21.39
2023-05-22T08:39:25.243Z,20.60
2023-05-22T08:40:24.737Z,18.79
2023-05-22T08:41:24.929Z,20.29
2023-05-22T08:42:25.055Z,21.5
2023-05-22T08:44:25.130Z,22.89
2023-05-22T08:45:25.237Z,20.79
2023-05-22T08:46:24.461Z,22.10
2023-05-22T08:47:24.932Z,19.29
2023-05-22T08:48:24.993Z,20.29
2023-05-22T08:49:25.272Z,20.20
2023-05-22T08:50:25.080Z,25.60
2023-05-22T08:51:25.148Z,20.5
2023-05-22T08:52:25.496Z,19.5
2023-05-22T08:53:25.281Z,19.39
2023-05-22T08:55:25.621Z,20.70
2023-05-22T08:56:26.697Z,20.5
2023-05-22T08:57:25.051Z,21.5
2023-05-22T08:58:25.611Z,21.20
2023-05-22T08:59:25.179Z,20.79
2023-05-22T09:00:25.771Z,21
2023-05-22T09:01:24.776Z,22.39
2023-05-22T09:02:24.813Z,24.10
2023-05-22T09:03:25.289Z,22.89
2023-05-22T09:04:24.832Z,22.70
2023-05-22T09:05:25.616Z,26.29
2023-05-22T09:06:25.023Z,27.10
2023-05-22T09:07:24.818Z,25.5
2023-05-22T09:08:24.990Z,29.39
2023-05-22T09:09:25.245Z,26.5
2023-05-22T09:10:25.266Z,25.60
2023-05-22T09:11:25.186Z,26
2023-05-22T09:12:24.797Z,27.89
2023-05-22T09:13:25.476Z,23.20
2023-05-22T09:14:24.975Z,21.39
2023-05-22T09:15:25.581Z,22.89
2023-05-22T09:16:25.151Z,23.89
2023-05-22T09:17:24.724Z,23
2023-05-22T09:18:25.191Z,28.20
2023-05-22T09:19:24.964Z,25.70
2023-05-22T09:20:25.103Z,26.79
2023-05-22T09:21:30.283Z,26.5
2023-05-22T09:22:25.253Z,24.60
2023-05-22T09:23:24.996Z,23.79
2023-05-22T09:24:24.986Z,25.70
2023-05-22T09:25:24.923Z,26.20
2023-05-22T09:26:25.279Z,22.20
2023-05-22T09:27:24.672Z,24.39
2023-05-22T09:28:25.136Z,23.29
2023-05-22T09:29:24.858Z,25.89
2023-05-22T09:30:25.848Z,27
2023-05-22T09:31:24.628Z,28.39
2023-05-22T09:32:25.230Z,24.89
2023-05-22T09:33:24.903Z,20.39
2023-05-22T09:34:24.867Z,23.70
2023-05-22T09:35:25.412Z,26.70
2023-05-22T09:36:25.085Z,24.10
2023-05-22T09:37:24.695Z,29.60
2023-05-22T09:38:25.014Z,25.79
2023-05-22T09:39:25.087Z,28
2023-05-22T09:40:25.381Z,24.39
2023-05-22T09:41:25.210Z,27.79
2023-05-22T09:42:24.760Z,27.20
2023-05-22T09:43:24.762Z,25.60
2023-05-22T09:44:25.314Z,24.5
2023-05-22T09:45:25.082Z,25.5
2023-05-22T09:46:24.907Z,24
2023-05-22T09:47:25.001Z,24.20
2023-05-22T09:48:24.835Z,24.70
2023-05-22T09:49:25.265Z,23.5
2023-05-22T09:50:24.984Z,25.79
2023-05-22T09:51:24.855Z,24.39
2023-05-22T09:52:25.581Z,26.20
2023-05-22T09:53:24.912Z,24.89
2023-05-22T09:54:24.602Z,25.5
2023-05-22T09:55:25.153Z,26.10
2023-05-22T09:56:37.796Z,24.5
2023-05-22T09:57:25.187Z,24.70
2023-05-22T09:58:24.797Z,24.60
2023-05-22T09:59:25.465Z,23.60
2023-05-22T10:00:25.725Z,23.20
2023-05-22T10:01:25.005Z,26
2023-05-22T10:02:29.892Z,23.5
2023-05-22T10:03:24.525Z,23.79
2023-05-22T10:04:25.234Z,21.20
2023-05-22T10:05:25.244Z,21.5
2023-05-22T10:06:30.356Z,20.60
2023-05-22T10:07:25.171Z,22.29
2023-05-22T10:09:25.788Z,19.5
2023-05-22T10:10:33.241Z,23.60
2023-05-22T10:11:24.957Z,23.10
2023-05-22T10:12:32.849Z,25.5
2023-05-22T10:13:25.229Z,23.39
2023-05-22T10:14:24.625Z,24
2023-05-22T10:15:25.461Z,24.10
2023-05-22T10:16:24.731Z,25.60
2023-05-22T10:17:24.739Z,24.29
2023-05-22T10:18:25.186Z,24.10
2023-05-22T10:19:24.806Z,24.20
2023-05-22T10:20:25.729Z,26.29
2023-05-22T10:21:25.488Z,22.79
2023-05-22T10:22:38.972Z,23.39
2023-05-22T10:23:24.398Z,23.20
2023-05-22T10:24:24.988Z,23.89
2023-05-22T10:25:25.631Z,24.29
2023-05-22T10:26:39.198Z,26.5
2023-05-22T10:27:24.908Z,23
2023-05-22T10:28:24.631Z,25.70
2023-05-22T10:29:25.373Z,26.70
2023-05-22T10:30:25.441Z,23.39
2023-05-22T10:31:25.065Z,23
2023-05-22T10:32:44.405Z,24
2023-05-22T10:33:25.462Z,23.20
2023-05-22T10:34:26.004Z,24.10
2023-05-22T10:35:25.667Z,26.29
2023-05-22T10:36:45.465Z,26
2023-05-22T10:37:26.471Z,25.29
2023-05-22T10:38:24.929Z,26
2023-05-22T10:39:25.646Z,25
2023-05-22T10:40:25.583Z,22.89
2023-05-22T10:41:24.817Z,24.29
2023-05-22T10:42:43.996Z,22
2023-05-22T10:43:25.382Z,21.79
2023-05-22T10:44:24.802Z,26.29
2023-05-22T10:45:25.721Z,23.60
2023-05-22T10:46:25.061Z,21.79
2023-05-22T10:47:24.856Z,26.70
2023-05-22T10:48:25.200Z,25.89
2023-05-22T10:49:24.999Z,24.39
2023-05-22T10:50:25.627Z,24.70
2023-05-22T10:51:25.107Z,22.29
2023-05-22T10:52:25.120Z,26.39
2023-05-22T10:53:25.311Z,25.70
2023-05-22T10:54:24.921Z,23.60
2023-05-22T10:55:25.642Z,24.10
2023-05-22T10:56:25.757Z,27.89
2023-05-22T10:57:24.801Z,24.60
2023-05-22T10:58:24.588Z,25.70
2023-05-22T10:59:25.279Z,21
2023-05-22T11:00:25.899Z,26
2023-05-22T11:01:25.035Z,26.39
2023-05-22T11:02:25.276Z,23.39
2023-05-22T11:03:25.069Z,26.39
2023-05-22T11:04:24.925Z,23.39
2023-05-22T11:05:25.176Z,23.89
2023-05-22T11:06:25.049Z,32.40
2023-05-22T11:07:24.948Z,26.39
2023-05-22T11:09:25.482Z,24.79
2023-05-22T11:10:25.234Z,26.5
2023-05-22T11:11:25.277Z,29.5
2023-05-22T11:12:25.423Z,26.10
2023-05-22T11:13:28.127Z,28.10
2023-05-22T11:14:25.483Z,28.5
2023-05-22T11:15:25.719Z,25.89
2023-05-22T11:16:25.524Z,27.60
2023-05-22T11:17:25.258Z,28.10
2023-05-22T11:18:24.786Z,24.79
2023-05-22T11:19:25.143Z,24.29
2023-05-22T11:20:25.124Z,25.5
2023-05-22T11:21:25.213Z,23
2023-05-22T11:22:24.865Z,23.39
2023-05-22T11:23:25.369Z,23.29
2023-05-22T11:24:24.687Z,24.70
2023-05-22T11:25:25.217Z,28.20
2023-05-22T11:26:27.183Z,25.29
2023-05-22T11:27:25.513Z,22.60
2023-05-22T11:28:25.199Z,23.20
2023-05-22T11:29:24.612Z,22.70
2023-05-22T11:30:25.393Z,23.5
2023-05-22T11:31:24.791Z,21.20
2023-05-22T11:32:24.953Z,22
2023-05-22T11:33:25.398Z,22.5
2023-05-22T11:34:24.915Z,20.89
2023-05-22T11:35:25.481Z,21.10
2023-05-22T11:36:24.968Z,18.79
2023-05-22T11:37:25.119Z,20.10
2023-05-22T11:38:24.612Z,20.60
2023-05-22T11:39:25.081Z,21.79
2023-05-22T11:40:25.459Z,22.79
2023-05-22T11:41:25.021Z,21.60
2023-05-22T11:42:24.770Z,23.10
2023-05-22T11:43:25.550Z,20.79
2023-05-22T11:44:25.026Z,21.20
2023-05-22T11:45:25.347Z,24.5
2023-05-22T11:46:25.008Z,21.89
2023-05-22T11:47:24.954Z,21.60
2023-05-22T11:48:25.030Z,23.29
2023-05-22T11:49:24.800Z,25.20
2023-05-22T11:50:40.864Z,23.29
2023-05-22T11:51:24.881Z,24.10
2023-05-22T11:52:25.541Z,22.70
2023-05-22T11:53:25.221Z,21.5
2023-05-22T11:54:24.937Z,21
2023-05-22T11:55:24.913Z,21.39
2023-05-22T11:56:25.248Z,22.60
2023-05-22T11:57:24.884Z,25.89
2023-05-22T11:58:24.937Z,22.60
2023-05-22T11:59:24.886Z,20.70
2023-05-22T12:00:26.592Z,21.29
2023-05-22T12:01:25.017Z,21.60
2023-05-22T12:02:24.873Z,22.39
2023-05-22T12:03:25.965Z,20.29
2023-05-22T12:04:24.832Z,24
2023-05-22T12:05:25.107Z,22.20
2023-05-22T12:06:24.788Z,21.5
2023-05-22T12:07:25.301Z,25.10
2023-05-22T12:08:25.055Z,24.29
2023-05-22T12:09:24.713Z,21.39
2023-05-22T12:10:25.586Z,24
2023-05-22T12:11:24.949Z,26
2023-05-22T12:12:24.923Z,23.20
2023-05-22T12:13:24.798Z,21.10
2023-05-22T12:14:25.369Z,21
2023-05-22T12:15:25.290Z,21.10
2023-05-22T12:16:24.744Z,21.60
2023-05-22T12:17:25.277Z,25.70
2023-05-22T12:18:24.779Z,23
2023-05-22T12:19:25.048Z,22.5
2023-05-22T12:20:25.849Z,24.29
2023-05-22T12:21:25.441Z,23.5
2023-05-22T12:22:25.233Z,23.39
2023-05-22T12:23:24.737Z,29.39
2023-05-22T12:24:25.220Z,27.10
2023-05-22T12:25:30.197Z,27.70
2023-05-22T12:26:24.859Z,20.10
2023-05-22T12:27:25.359Z,21.5
2023-05-22T12:28:24.806Z,24
2023-05-22T12:29:25.217Z,29.89
2023-05-22T12:30:25.218Z,28.29
2023-05-22T12:31:24.900Z,27.70
2023-05-22T12:33:25.114Z,25.70
2023-05-22T12:34:24.853Z,25.60
2023-05-22T12:35:25.561Z,27
2023-05-22T12:36:25.175Z,26.79
2023-05-22T12:37:25.043Z,26.89
2023-05-22T12:38:24.947Z,25.10
2023-05-22T12:39:25.333Z,26.10
2023-05-22T12:40:24.865Z,25.29
2023-05-22T12:41:24.892Z,26.29
2023-05-22T12:42:25.277Z,28.60
2023-05-22T12:43:24.726Z,29.79
2023-05-22T12:44:25.332Z,23.70
2023-05-22T12:45:25.151Z,23.39
2023-05-22T12:46:24.919Z,25.89
2023-05-22T12:47:25.073Z,24.29
2023-05-22T12:48:24.767Z,28.60
2023-05-22T12:49:25.346Z,27.20
2023-05-22T12:50:25.107Z,28.39
2023-05-22T12:51:25.565Z,29.79
2023-05-22T12:52:25.178Z,25.60
2023-05-22T12:53:24.683Z,25.39
2023-05-22T12:54:25.283Z,24.89
2023-05-22T12:55:25.129Z,28.20
2023-05-22T12:56:25.033Z,28.29
2023-05-22T12:57:44.086Z,25.29
2023-05-22T12:58:24.312Z,27.79
2023-05-22T12:59:25.208Z,27.89
2023-05-22T13:00:25.835Z,28.89
2023-05-22T13:01:43.838Z,26.79
2023-05-22T13:02:25.639Z,26.29
2023-05-22T13:03:25.413Z,26.5
2023-05-22T13:04:24.838Z,27.89
2023-05-22T13:05:25.899Z,28
2023-05-22T13:06:25.440Z,30.20
2023-05-22T13:07:46.698Z,29
2023-05-22T13:08:25.354Z,28.70
2023-05-22T13:09:25.046Z,26.79
2023-05-22T13:10:25.549Z,27
2023-05-22T13:11:25.139Z,28.60
2023-05-22T13:12:24.560Z,28
2023-05-22T13:13:25.342Z,32.40
2023-05-22T13:14:25.054Z,29.10
2023-05-22T13:15:25.048Z,27.79
2023-05-22T13:16:25.291Z,26.79
2023-05-22T13:17:25.217Z,27.39